Time;durP1;ratioP1;P1;durP2;ratioP2;P2;SDS_P1;SDS_P2;PMS_P1;PMS_P2;Temp;Humidity;BMP_temperature;BMP_pressure;BME280_temperature;BME280_humidity;BME280_pressure;Samples;Min_cycle;Max_cycle;Signal;HPM_P1;HPM_P2
2021/11/14 00:01:43;;;;;;;18.08;12.65;;;;;;;-140.79;100.00;63287.88;5006564;28;20084;-63
2021/11/14 00:04:09;;;;;;;18.15;12.27;;;;;;;-140.79;100.00;63287.88;5006405;28;20054;-63
2021/11/14 00:06:35;;;;;;;17.77;11.68;;;;;;;-140.79;100.00;63287.88;5006048;28;20038;-64
2021/11/14 00:09:00;;;;;;;18.80;12.02;;;;;;;-140.79;100.00;63287.88;5006297;28;20080;-64
2021/11/14 00:11:26;;;;;;;17.63;12.48;;;;;;;-140.79;100.00;63287.88;5005982;28;20451;-63
2021/11/14 00:13:51;;;;;;;15.77;11.55;;;;;;;-140.79;100.00;63287.88;4989041;28;20444;-63
2021/11/14 00:16:18;;;;;;;17.95;12.18;;;;;;;-140.79;100.00;63287.88;5006089;28;20112;-63
2021/11/14 00:18:43;;;;;;;17.65;12.30;;;;;;;-140.79;100.00;63287.88;5005980;28;20037;-63
2021/11/14 00:21:10;;;;;;;17.92;12.30;;;;;;;-140.79;100.00;63287.88;5006170;28;20022;-63
2021/11/14 00:23:35;;;;;;;18.52;12.18;;;;;;;-140.79;100.00;63287.88;5006065;28;20040;-63
2021/11/14 00:26:01;;;;;;;17.77;13.02;;;;;;;-140.79;100.00;63287.88;4988218;28;20025;-63
2021/11/14 00:28:26;;;;;;;18.35;12.90;;;;;;;-140.79;100.00;63287.88;5005672;28;20029;-63
2021/11/14 00:30:52;;;;;;;18.75;12.63;;;;;;;-140.79;100.00;63287.88;5005988;28;20547;-63
2021/11/14 00:33:18;;;;;;;18.52;13.35;;;;;;;-140.79;100.00;63287.88;5005188;28;20030;-63
2021/11/14 00:35:44;;;;;;;17.50;12.45;;;;;;;-140.79;100.00;63287.88;5005601;28;20026;-64
2021/11/14 00:38:09;;;;;;;19.27;12.70;;;;;;;-140.79;100.00;63287.88;5006043;28;20034;-63
2021/11/14 00:40:35;;;;;;;20.02;14.07;;;;;;;-140.79;100.00;63287.88;4988161;28;20527;-63
2021/11/14 00:43:01;;;;;;;18.08;12.75;;;;;;;-140.79;100.00;63287.88;5005618;28;20133;-63
2021/11/14 00:45:27;;;;;;;18.88;12.30;;;;;;;-140.79;100.00;63287.88;5005497;28;20129;-63
2021/11/14 00:47:53;;;;;;;18.00;12.63;;;;;;;-140.79;100.00;63287.88;4988112;28;20161;-63
2021/11/14 00:50:18;;;;;;;17.75;12.32;;;;;;;-140.79;100.00;63287.88;5005478;28;20594;-63
2021/11/14 00:52:44;;;;;;;20.38;12.93;;;;;;;-140.79;100.00;63287.88;5005534;28;20029;-63
2021/11/14 00:55:12;;;;;;;19.20;12.50;;;;;;;-140.79;100.00;63287.88;4988082;28;20087;-63
2021/11/14 00:57:37;;;;;;;18.02;12.85;;;;;;;-140.79;100.00;63287.88;5005245;28;20026;-63
2021/11/14 01:00:06;;;;;;;17.95;12.63;;;;;;;-140.79;100.00;63287.88;5005272;28;20516;-63
2021/11/14 01:02:57;;;;;;;16.73;11.85;;;;;;;-140.79;100.00;63287.88;5020958;23;20507;-63
2021/11/14 01:05:23;;;;;;;16.63;11.93;;;;;;;-140.79;100.00;63287.88;5022595;28;20042;-64
2021/11/14 01:07:49;;;;;;;17.13;12.35;;;;;;;-140.79;100.00;63287.88;5024620;28;20029;-63
2021/11/14 01:10:16;;;;;;;18.80;12.85;;;;;;;-140.79;100.00;63287.88;5023604;28;20084;-63
2021/11/14 01:12:42;;;;;;;18.25;12.95;;;;;;;-140.79;100.00;63287.88;5024792;28;20116;-63
2021/11/14 01:15:08;;;;;;;19.08;13.13;;;;;;;-140.79;100.00;63287.88;5023741;28;20079;-63
2021/11/14 01:17:38;;;;;;;20.88;13.05;;;;;;;-140.79;100.00;63287.88;5024419;28;20148;-63
2021/11/14 01:20:14;;;;;;;17.40;12.68;;;;;;;-140.79;100.00;63287.88;5023476;28;20531;-63
2021/11/14 01:22:40;;;;;;;17.90;12.27;;;;;;;-140.79;100.00;63287.88;5024670;28;20084;-63
2021/11/14 01:25:06;;;;;;;17.90;12.45;;;;;;;-140.79;100.00;63287.88;5024893;28;20025;-63
2021/11/14 01:27:32;;;;;;;17.48;12.50;;;;;;;-140.79;100.00;63287.88;5024616;28;20029;-63
2021/11/14 01:29:58;;;;;;;18.42;12.88;;;;;;;-140.79;100.00;63287.88;5024653;28;20384;-63
2021/11/14 01:32:23;;;;;;;17.77;12.73;;;;;;;-140.79;100.00;63287.88;5023430;28;20120;-63
2021/11/14 01:34:48;;;;;;;18.75;12.75;;;;;;;-140.79;100.00;63287.88;5025203;28;20450;-63
2021/11/14 01:37:14;;;;;;;17.83;12.85;;;;;;;-140.79;100.00;63287.88;5025214;28;20033;-63
2021/11/14 01:39:39;;;;;;;19.33;13.20;;;;;;;-140.79;100.00;63287.88;5024860;28;20026;-63
2021/11/14 01:42:05;;;;;;;19.48;12.77;;;;;;;-140.79;100.00;63287.88;5023578;28;20021;-63
2021/11/14 01:44:30;;;;;;;18.73;12.60;;;;;;;-140.79;100.00;63287.88;5025098;28;20415;-63
2021/11/14 01:46:56;;;;;;;16.85;12.35;;;;;;;-140.79;100.00;63287.88;5028437;28;20025;-63
2021/11/14 01:49:21;;;;;;;19.20;13.15;;;;;;;-140.79;100.00;63287.88;5028452;28;20018;-63
2021/11/14 01:51:46;;;;;;;17.88;12.93;;;;;;;-140.79;100.00;63287.88;5028788;28;20021;-63
2021/11/14 01:54:18;;;;;;;20.65;12.82;;;;;;;-140.79;100.00;63287.88;5028570;28;20056;-63
2021/11/14 01:56:44;;;;;;;19.30;12.80;;;;;;;-140.79;100.00;63287.88;5028154;28;20510;-63
2021/11/14 01:59:09;;;;;;;18.17;12.20;;;;;;;-140.79;100.00;63287.88;5028334;28;20018;-63
2021/11/14 02:01:35;;;;;;;18.48;12.07;;;;;;;-140.79;100.00;63287.88;5027253;28;20458;-63
2021/11/14 02:04:03;;;;;;;21.17;12.55;;;;;;;-140.79;100.00;63287.88;5027904;28;20581;-63
2021/11/14 02:06:29;;;;;;;17.27;12.00;;;;;;;-140.79;100.00;63287.88;5026974;28;20564;-63
2021/11/14 02:08:55;;;;;;;17.80;12.52;;;;;;;-140.79;100.00;63287.88;5026948;28;20120;-63
2021/11/14 02:11:21;;;;;;;17.73;12.18;;;;;;;-140.79;100.00;63287.88;5027925;28;20051;-63
2021/11/14 02:13:47;;;;;;;18.00;12.80;;;;;;;-140.79;100.00;63287.88;5028209;28;20033;-63
2021/11/14 02:16:13;;;;;;;18.27;12.00;;;;;;;-140.79;100.00;63287.88;5028136;28;20026;-63
2021/11/14 02:18:39;;;;;;;19.05;13.27;;;;;;;-140.79;100.00;63287.88;5026682;28;20509;-63
2021/11/14 02:21:04;;;;;;;19.20;13.25;;;;;;;-140.79;100.00;63287.88;5028202;28;20036;-63
2021/11/14 02:23:30;;;;;;;19.42;12.63;;;;;;;-140.79;100.00;63287.88;5027807;28;20060;-63
2021/11/14 02:25:56;;;;;;;16.40;12.30;;;;;;;-140.79;100.00;63287.88;5026537;28;20626;-63
2021/11/14 02:28:22;;;;;;;17.55;12.35;;;;;;;-140.79;100.00;63287.88;5026418;28;20037;-63
2021/11/14 02:30:49;;;;;;;17.58;11.88;;;;;;;-140.79;100.00;63287.88;5027728;28;20269;-63
2021/11/14 02:33:15;;;;;;;17.13;12.07;;;;;;;-140.79;100.00;63287.88;5027849;28;20083;-63
2021/11/14 02:35:43;;;;;;;15.55;11.13;;;;;;;-140.79;100.00;63287.88;5027403;28;20028;-63
2021/11/14 02:38:09;;;;;;;16.92;11.73;;;;;;;-140.79;100.00;63287.88;5027754;28;20531;-63
2021/11/14 02:40:34;;;;;;;18.10;12.82;;;;;;;-140.79;100.00;63287.88;5027725;28;20036;-64
2021/11/14 02:43:00;;;;;;;16.73;12.07;;;;;;;-140.79;100.00;63287.88;5027571;28;20033;-63
2021/11/14 02:45:26;;;;;;;17.02;12.07;;;;;;;-140.79;100.00;63287.88;5027378;28;20032;-63
2021/11/14 02:47:52;;;;;;;18.10;12.43;;;;;;;-140.79;100.00;63287.88;5042203;28;20064;-63
2021/11/14 02:50:18;;;;;;;18.45;12.27;;;;;;;-140.79;100.00;63287.88;5009833;28;20033;-63
2021/11/14 02:52:44;;;;;;;16.80;11.73;;;;;;;-140.79;100.00;63287.88;5027381;28;20420;-63
2021/11/14 02:55:11;;;;;;;18.00;12.25;;;;;;;-140.79;100.00;63287.88;5027542;28;20116;-63
2021/11/14 02:57:37;;;;;;;19.13;12.98;;;;;;;-140.79;100.00;63287.88;5026836;28;20047;-63
2021/11/14 03:00:08;;;;;;;17.02;11.90;;;;;;;-140.79;100.00;63287.88;5027993;28;20693;-64
2021/11/14 03:02:34;;;;;;;16.92;11.73;;;;;;;-140.79;100.00;63287.88;5028420;28;20111;-63
2021/11/14 03:04:59;;;;;;;17.13;11.90;;;;;;;-140.79;100.00;63287.88;5029227;28;20610;-63
2021/11/14 03:07:24;;;;;;;16.27;11.95;;;;;;;-140.79;100.00;63287.88;5028414;28;20021;-63
2021/11/14 03:09:50;;;;;;;17.85;11.55;;;;;;;-140.79;100.00;63287.88;5026443;28;20029;-63
2021/11/14 03:12:15;;;;;;;16.35;11.73;;;;;;;-140.79;100.00;63287.88;5027581;28;20021;-63
2021/11/14 03:14:41;;;;;;;18.30;12.13;;;;;;;-140.79;100.00;63287.88;5027267;28;20025;-62
2021/11/14 03:17:06;;;;;;;16.00;10.55;;;;;;;-140.79;100.00;63287.88;5027328;28;20205;-63
2021/11/14 03:19:32;;;;;;;16.25;11.25;;;;;;;-140.79;100.00;63287.88;5026791;28;20574;-62
2021/11/14 03:21:57;;;;;;;16.58;11.27;;;;;;;-140.79;100.00;63287.88;5026917;28;20545;-63
2021/11/14 03:24:22;;;;;;;16.50;11.30;;;;;;;-140.79;100.00;63287.88;5026951;28;20542;-63
2021/11/14 03:26:48;;;;;;;17.75;11.73;;;;;;;-140.79;100.00;63287.88;5026670;28;20033;-63
2021/11/14 03:29:13;;;;;;;17.90;11.57;;;;;;;-140.79;100.00;63287.88;5041808;28;20086;-63
2021/11/14 03:31:40;;;;;;;17.05;11.52;;;;;;;-140.79;100.00;63287.88;5026798;28;20116;-63
2021/11/14 03:34:06;;;;;;;16.85;11.63;;;;;;;-140.79;100.00;63287.88;5026808;28;20026;-63
2021/11/14 03:36:31;;;;;;;17.38;12.23;;;;;;;-140.79;100.00;63287.88;5026561;28;20036;-63
2021/11/14 03:38:59;;;;;;;17.58;11.82;;;;;;;-140.79;100.00;63287.88;5026460;28;20021;-63
2021/11/14 03:41:28;;;;;;;15.70;11.07;;;;;;;-140.79;100.00;63287.88;5026469;28;20029;-63
2021/11/14 03:43:54;;;;;;;15.70;11.32;;;;;;;-140.79;100.00;63287.88;5025514;28;20033;-63
2021/11/14 03:46:20;;;;;;;15.93;11.88;;;;;;;-140.79;100.00;63287.88;5026563;28;20418;-63
2021/11/14 03:48:46;;;;;;;16.92;11.18;;;;;;;-140.79;100.00;63287.88;5026303;28;20035;-63
2021/11/14 03:51:12;;;;;;;15.68;11.38;;;;;;;-140.79;100.00;63287.88;5026055;28;20065;-63
2021/11/14 03:53:37;;;;;;;15.90;11.07;;;;;;;-140.79;100.00;63287.88;5026277;28;20029;-63
2021/11/14 03:56:04;;;;;;;15.07;11.27;;;;;;;-140.79;100.00;63287.88;5024866;28;20545;-64
2021/11/14 03:58:29;;;;;;;14.50;10.15;;;;;;;-140.79;100.00;63287.88;5026073;28;20040;-63
2021/11/14 04:00:56;;;;;;;15.95;11.32;;;;;;;-140.79;100.00;63287.88;5025969;28;20017;-63
2021/11/14 04:03:22;;;;;;;15.02;11.40;;;;;;;-140.79;100.00;63287.88;5025821;28;20088;-63
2021/11/14 04:05:47;;;;;;;14.38;10.63;;;;;;;-140.79;100.00;63287.88;5025935;28;20068;-63
2021/11/14 04:08:15;;;;;;;14.18;10.43;;;;;;;-140.79;100.00;63287.88;5024773;28;20061;-63
2021/11/14 04:10:41;;;;;;;16.23;11.13;;;;;;;-140.79;100.00;63287.88;5025529;28;20041;-63
2021/11/14 04:13:07;;;;;;;15.00;10.50;;;;;;;-140.79;100.00;63287.88;5026070;28;20033;-63
2021/11/14 04:15:32;;;;;;;17.42;10.90;;;;;;;-140.79;100.00;63287.88;5025680;28;20037;-63
2021/11/14 04:17:57;;;;;;;16.92;11.85;;;;;;;-140.79;100.00;63287.88;5025708;28;20057;-63
2021/11/14 04:20:25;;;;;;;15.82;11.30;;;;;;;-140.79;100.00;63287.88;5025681;28;20029;-63
2021/11/14 04:22:51;;;;;;;15.30;10.90;;;;;;;-140.79;100.00;63287.88;5025501;28;20506;-63
2021/11/14 04:25:16;;;;;;;16.88;11.30;;;;;;;-140.79;100.00;63287.88;5025824;28;20033;-63
2021/11/14 04:27:42;;;;;;;14.15;10.55;;;;;;;-140.79;100.00;63287.88;5025860;28;20033;-63
2021/11/14 04:30:07;;;;;;;15.13;11.15;;;;;;;-140.79;100.00;63287.88;5025909;28;20507;-63
2021/11/14 04:32:33;;;;;;;15.05;10.65;;;;;;;-140.79;100.00;63287.88;5025670;28;20088;-63
2021/11/14 04:34:58;;;;;;;17.05;11.10;;;;;;;-140.79;100.00;63287.88;5025629;28;20017;-63
2021/11/14 04:37:24;;;;;;;16.40;11.60;;;;;;;-140.79;100.00;63287.88;5025351;28;20078;-63
2021/11/14 04:39:50;;;;;;;16.23;11.10;;;;;;;-140.79;100.00;63287.88;5025394;28;20017;-63
2021/11/14 04:42:15;;;;;;;15.45;10.75;;;;;;;-140.79;100.00;63287.88;5024172;28;20029;-63
2021/11/14 04:44:40;;;;;;;15.63;10.77;;;;;;;-140.79;100.00;63287.88;5025298;28;20510;-63
2021/11/14 04:47:06;;;;;;;15.10;10.48;;;;;;;-140.79;100.00;63287.88;5025304;28;20030;-64
2021/11/14 04:49:31;;;;;;;14.57;10.73;;;;;;;-140.79;100.00;63287.88;5024923;28;20025;-63
2021/11/14 04:51:57;;;;;;;16.42;11.05;;;;;;;-140.79;100.00;63287.88;5025367;28;20068;-63
2021/11/14 04:54:22;;;;;;;15.95;10.73;;;;;;;-140.79;100.00;63287.88;5025294;28;20021;-63
2021/11/14 04:56:49;;;;;;;14.75;10.18;;;;;;;-140.79;100.00;63287.88;5024924;28;20034;-63
2021/11/14 04:59:15;;;;;;;15.50;11.18;;;;;;;-140.79;100.00;63287.88;5023788;28;20091;-63
2021/11/14 05:01:41;;;;;;;16.40;11.02;;;;;;;-140.79;100.00;63287.88;5024818;28;20450;-63
2021/11/14 05:04:06;;;;;;;15.13;10.60;;;;;;;-140.79;100.00;63287.88;5024847;28;20100;-63
2021/11/14 05:06:32;;;;;;;13.50;10.13;;;;;;;-140.79;100.00;63287.88;5024966;28;20045;-63
2021/11/14 05:08:58;;;;;;;14.77;10.85;;;;;;;-140.79;100.00;63287.88;5025094;28;20487;-64
2021/11/14 05:11:24;;;;;;;14.88;10.57;;;;;;;-140.79;100.00;63287.88;5024576;28;20033;-63
2021/11/14 05:13:49;;;;;;;14.60;10.43;;;;;;;-140.79;100.00;63287.88;5024623;28;20032;-64
2021/11/14 05:16:15;;;;;;;14.25;9.95;;;;;;;-140.79;100.00;63287.88;5007175;28;20021;-63
2021/11/14 05:18:40;;;;;;;14.00;10.25;;;;;;;-140.79;100.00;63287.88;5008628;28;20119;-63
2021/11/14 05:21:07;;;;;;;14.88;9.95;;;;;;;-140.79;100.00;63287.88;5019929;28;20447;-63
2021/11/14 05:23:33;;;;;;;14.35;9.70;;;;;;;-140.79;100.00;63287.88;5005198;28;20507;-64
2021/11/14 05:25:58;;;;;;;14.73;10.35;;;;;;;-140.79;100.00;63287.88;5004840;28;20034;-63
2021/11/14 05:28:23;;;;;;;14.10;9.50;;;;;;;-140.79;100.00;63287.88;5004718;28;20040;-64
2021/11/14 05:30:49;;;;;;;14.38;9.68;;;;;;;-140.79;100.00;63287.88;5012856;28;20018;-63
2021/11/14 05:33:14;;;;;;;12.93;10.02;;;;;;;-140.79;100.00;63287.88;5014641;28;20017;-63
2021/11/14 05:35:40;;;;;;;14.50;9.52;;;;;;;-140.79;100.00;63287.88;5013141;28;20385;-63
2021/11/14 05:38:06;;;;;;;13.65;9.73;;;;;;;-140.79;100.00;63287.88;5028295;28;20017;-63
2021/11/14 05:40:31;;;;;;;13.63;9.73;;;;;;;-140.79;100.00;63287.88;5018511;28;20041;-62
2021/11/14 05:42:57;;;;;;;14.65;10.07;;;;;;;-140.79;100.00;63287.88;5024429;28;20032;-63
2021/11/14 05:45:22;;;;;;;13.15;9.77;;;;;;;-140.79;100.00;63287.88;5038232;28;20044;-64
2021/11/14 05:47:48;;;;;;;14.60;8.50;;;;;;;-140.79;100.00;63287.88;5024044;28;20034;-64
2021/11/14 05:50:13;;;;;;;14.07;9.27;;;;;;;-140.79;100.00;63287.88;5024570;28;20033;-63
2021/11/14 05:52:39;;;;;;;14.93;9.60;;;;;;;-140.79;100.00;63287.88;5024355;28;20033;-63
2021/11/14 05:55:05;;;;;;;13.25;9.55;;;;;;;-140.79;100.00;63287.88;5024223;28;20411;-63
2021/11/14 05:57:38;;;;;;;14.57;9.50;;;;;;;-140.79;100.00;63287.88;5023895;28;20037;-63
2021/11/14 06:00:10;;;;;;;12.07;9.13;;;;;;;-140.79;100.00;63287.88;5022816;28;20021;-63
2021/11/14 06:02:45;;;;;;;12.25;9.15;;;;;;;-140.79;100.00;63287.88;5023868;28;20028;-63
2021/11/14 06:05:15;;;;;;;12.00;9.10;;;;;;;-140.79;100.00;63287.88;5023683;28;20091;-65
2021/11/14 06:07:41;;;;;;;;;;;;;;;-140.79;100.00;63287.88;5024227;28;20036;-63
2021/11/14 06:10:07;;;;;;;12.45;9.55;;;;;;;-140.79;100.00;63287.88;5022742;28;19917;-63
2021/11/14 06:12:34;;;;;;;14.00;9.20;;;;;;;-140.79;100.00;63287.88;5022857;28;20427;-63
2021/11/14 06:15:00;;;;;;;13.18;9.38;;;;;;;-140.79;100.00;63287.88;5022926;28;20615;-63
2021/11/14 06:17:25;;;;;;;12.95;9.20;;;;;;;-140.79;100.00;63287.88;5021942;28;20112;-62
2021/11/14 06:19:51;;;;;;;13.32;9.48;;;;;;;-140.79;100.00;63287.88;5023149;28;20021;-64
2021/11/14 06:22:17;;;;;;;12.15;8.77;;;;;;;-140.79;100.00;63287.88;5022440;28;20025;-63
2021/11/14 06:24:42;;;;;;;12.07;8.40;;;;;;;-140.79;100.00;63287.88;5023313;28;20045;-64
2021/11/14 06:27:08;;;;;;;13.20;8.65;;;;;;;-140.79;100.00;63287.88;5021663;28;20420;-64
2021/11/14 06:29:33;;;;;;;11.65;8.35;;;;;;;-140.79;100.00;63287.88;5021453;28;20129;-65
2021/11/14 06:31:58;;;;;;;12.60;8.82;;;;;;;-140.79;100.00;63287.88;5024631;28;20025;-65
2021/11/14 06:34:24;;;;;;;12.00;8.27;;;;;;;-140.79;100.00;63287.88;5027349;28;20697;-68
2021/11/14 06:36:49;;;;;;;12.35;8.95;;;;;;;-140.79;100.00;63287.88;5027405;28;20045;-66
2021/11/14 06:39:15;;;;;;;11.90;7.97;;;;;;;-140.79;100.00;63287.88;5026543;28;20060;-67
2021/11/14 06:41:40;;;;;;;12.75;9.25;;;;;;;-140.79;100.00;63287.88;5026333;28;20059;-68
2021/11/14 06:44:06;;;;;;;12.02;8.52;;;;;;;-140.79;100.00;63287.88;5042940;28;20041;-66
2021/11/14 06:46:31;;;;;;;13.23;8.88;;;;;;;-140.79;100.00;63287.88;5027806;28;20045;-65
2021/11/14 06:48:57;;;;;;;11.93;9.10;;;;;;;-140.79;100.00;63287.88;5027607;28;20479;-65
2021/11/14 06:51:22;;;;;;;12.88;9.55;;;;;;;-140.79;100.00;63287.88;5026202;28;20055;-66
2021/11/14 06:53:48;;;;;;;11.38;7.95;;;;;;;-140.79;100.00;63287.88;5026720;28;20507;-66
2021/11/14 06:56:13;;;;;;;11.43;8.20;;;;;;;-140.79;100.00;63287.88;5027151;28;20029;-69
2021/11/14 06:58:38;;;;;;;11.07;8.40;;;;;;;-140.79;100.00;63287.88;5026668;28;20033;-64
2021/11/14 07:01:04;;;;;;;12.40;8.55;;;;;;;-140.79;100.00;63287.88;5027020;28;20033;-64
2021/11/14 07:03:29;;;;;;;15.35;8.13;;;;;;;-140.79;100.00;63287.88;5026657;28;20054;-64
2021/11/14 07:05:55;;;;;;;11.50;8.68;;;;;;;-140.79;100.00;63287.88;5026686;28;20033;-67
2021/11/14 07:08:20;;;;;;;13.48;8.88;;;;;;;-140.79;100.00;63287.88;5027088;28;20091;-63
2021/11/14 07:10:47;;;;;;;15.80;8.57;;;;;;;-140.79;100.00;63287.88;5026239;28;20033;-64
2021/11/14 07:13:12;;;;;;;12.20;8.27;;;;;;;-140.79;100.00;63287.88;5026975;28;20053;-64
2021/11/14 07:15:38;;;;;;;13.82;9.05;;;;;;;-140.79;100.00;63287.88;5009929;28;20064;-64
2021/11/14 07:18:03;;;;;;;11.07;7.97;;;;;;;-140.79;100.00;63287.88;5028029;28;20053;-63
2021/11/14 07:20:28;;;;;;;13.05;8.52;;;;;;;-140.79;100.00;63287.88;5025732;28;20140;-63
2021/11/14 07:22:54;;;;;;;10.35;8.10;;;;;;;-140.79;100.00;63287.88;5026333;28;20492;-65
2021/11/14 07:25:19;;;;;;;10.35;7.78;;;;;;;-140.79;100.00;63287.88;5024983;28;20029;-64
2021/11/14 07:27:47;;;;;;;12.10;7.90;;;;;;;-140.79;100.00;63287.88;5008733;28;20033;-64
2021/11/14 07:30:13;;;;;;;11.55;8.00;;;;;;;-140.79;100.00;63287.88;5026223;28;20030;-63
2021/11/14 07:32:42;;;;;;;12.82;8.30;;;;;;;-140.79;100.00;63287.88;5026465;28;20033;-64
2021/11/14 07:35:08;;;;;;;12.80;8.25;;;;;;;-140.79;100.00;63287.88;5025341;28;20029;-63
2021/11/14 07:37:34;;;;;;;10.70;7.63;;;;;;;-140.79;100.00;63287.88;5026293;28;20033;-64
2021/11/14 07:40:00;;;;;;;18.50;8.80;;;;;;;-140.79;100.00;63287.88;5026276;28;20087;-63
2021/11/14 07:42:25;;;;;;;20.63;9.05;;;;;;;-140.79;100.00;63287.88;5026089;28;20029;-65
2021/11/14 07:44:50;;;;;;;19.50;8.57;;;;;;;-140.79;100.00;63287.88;5025719;28;20025;-65
2021/11/14 07:47:16;;;;;;;13.35;7.82;;;;;;;-140.79;100.00;63287.88;5026125;28;20025;-64
2021/11/14 07:49:41;;;;;;;13.88;8.00;;;;;;;-140.79;100.00;63287.88;5025416;28;20030;-66
2021/11/14 07:52:07;;;;;;;14.98;7.88;;;;;;;-140.79;100.00;63287.88;5024497;28;20021;-66
2021/11/14 07:54:32;;;;;;;14.82;8.15;;;;;;;-140.79;100.00;63287.88;5025446;28;20320;-67
2021/11/14 07:56:58;;;;;;;13.88;7.70;;;;;;;-140.79;100.00;63287.88;5024924;28;20116;-67
2021/11/14 07:59:23;;;;;;;12.50;8.00;;;;;;;-140.79;100.00;63287.88;5023907;28;20025;-68
2021/11/14 08:01:49;;;;;;;12.18;7.45;;;;;;;-140.79;100.00;63287.88;5024652;28;20032;-65
2021/11/14 08:04:14;;;;;;;14.68;7.63;;;;;;;-140.79;100.00;63287.88;5024815;28;20045;-64
2021/11/14 08:06:40;;;;;;;11.45;7.53;;;;;;;-140.79;100.00;63287.88;5024455;28;20017;-65
2021/11/14 08:09:05;;;;;;;12.88;7.43;;;;;;;-140.79;100.00;63287.88;5026290;28;20030;-63
2021/11/14 08:11:31;;;;;;;13.43;7.60;;;;;;;-140.79;100.00;63287.88;5024822;28;20030;-64
2021/11/14 08:13:56;;;;;;;15.38;11.55;;;;;;;-140.79;100.00;63287.88;5023684;28;20033;-65
2021/11/14 08:16:22;;;;;;;12.30;8.48;;;;;;;-140.79;100.00;63287.88;5025920;28;20032;-63
2021/11/14 08:18:47;;;;;;;13.40;8.10;;;;;;;-140.79;100.00;63287.88;5026012;28;20170;-63
2021/11/14 08:21:13;;;;;;;11.75;7.97;;;;;;;-140.79;100.00;63287.88;5025514;28;20598;-64
2021/11/14 08:23:38;;;;;;;11.52;7.60;;;;;;;-140.79;100.00;63287.88;5025791;28;20036;-64
2021/11/14 08:26:04;;;;;;;11.48;7.75;;;;;;;-140.79;100.00;63287.88;5025500;28;20049;-64
2021/11/14 08:28:30;;;;;;;12.57;7.82;;;;;;;-140.79;100.00;63287.88;5025340;28;20037;-64
2021/11/14 08:30:55;;;;;;;11.13;7.70;;;;;;;-140.79;100.00;63287.88;5024293;28;20053;-64
2021/11/14 08:33:21;;;;;;;9.88;7.18;;;;;;;-140.79;100.00;63287.88;5025182;28;20471;-63
2021/11/14 08:35:46;;;;;;;11.50;7.75;;;;;;;-140.79;100.00;63287.88;5025268;28;20026;-64
2021/11/14 08:38:12;;;;;;;12.25;7.50;;;;;;;-140.79;100.00;63287.88;5024887;28;20107;-64
2021/11/14 08:40:37;;;;;;;12.45;7.57;;;;;;;-140.79;100.00;63287.88;5025480;28;20029;-63
2021/11/14 08:43:04;;;;;;;10.88;7.70;;;;;;;-140.79;100.00;63287.88;5025282;28;20025;-64
2021/11/14 08:45:30;;;;;;;10.55;7.28;;;;;;;-140.79;100.00;63287.88;5025264;28;20087;-66
2021/11/14 08:47:55;;;;;;;10.73;7.57;;;;;;;-140.79;100.00;63287.88;5040456;28;20025;-68
2021/11/14 08:50:21;;;;;;;13.52;8.05;;;;;;;-140.79;100.00;63287.88;5025332;28;20100;-63
2021/11/14 08:52:47;;;;;;;9.57;7.22;;;;;;;-140.79;100.00;63287.88;5025269;28;20032;-65
2021/11/14 08:55:20;;;;;;;10.52;7.25;;;;;;;-140.79;100.00;63287.88;5025126;28;20026;-63
2021/11/14 08:57:46;;;;;;;9.63;6.93;;;;;;;-140.79;100.00;63287.88;5024190;28;20029;-62
2021/11/14 09:00:12;;;;;;;10.57;7.55;;;;;;;-140.79;100.00;63287.88;5023673;28;20025;-64
2021/11/14 09:02:38;;;;;;;11.40;7.32;;;;;;;-140.79;100.00;63287.88;5025250;28;20411;-63
2021/11/14 09:05:04;;;;;;;11.13;7.75;;;;;;;-140.79;100.00;63287.88;5025232;28;20041;-63
2021/11/14 09:07:29;;;;;;;11.05;7.32;;;;;;;-140.79;100.00;63287.88;5025073;28;20025;-63
2021/11/14 09:09:55;;;;;;;11.68;7.07;;;;;;;-140.79;100.00;63287.88;5040395;28;20466;-64
2021/11/14 09:12:20;;;;;;;10.85;7.30;;;;;;;-140.79;100.00;63287.88;5025190;28;20022;-62
2021/11/14 09:14:46;;;;;;;10.73;7.60;;;;;;;-140.79;100.00;63287.88;5023940;28;20029;-64
2021/11/14 09:17:11;;;;;;;10.10;6.68;;;;;;;-140.79;100.00;63287.88;5024397;28;20029;-66
2021/11/14 09:19:37;;;;;;;10.15;7.40;;;;;;;-140.79;100.00;63287.88;5024977;28;20025;-66
2021/11/14 09:22:02;;;;;;;12.30;7.53;;;;;;;-140.79;100.00;63287.88;5025077;28;20037;-66
2021/11/14 09:24:27;;;;;;;11.18;7.13;;;;;;;-140.79;100.00;63287.88;5024984;28;20060;-64
2021/11/14 09:26:53;;;;;;;12.10;7.70;;;;;;;-140.79;100.00;63287.88;5024982;28;20036;-64
2021/11/14 09:29:18;;;;;;;11.38;7.35;;;;;;;-140.79;100.00;63287.88;5024504;28;20021;-64
2021/11/14 09:31:45;;;;;;;9.93;6.97;;;;;;;-140.79;100.00;63287.88;5023391;28;20487;-64
2021/11/14 09:34:11;;;;;;;13.63;6.80;;;;;;;-140.79;100.00;63287.88;5024828;28;20032;-65
2021/11/14 09:36:37;;;;;;;14.70;7.47;;;;;;;-140.79;100.00;63287.88;5023424;28;20025;-65
2021/11/14 09:39:12;;;;;;;13.90;7.07;;;;;;;-140.79;100.00;63287.88;5023270;28;20124;-63
2021/11/14 09:41:42;;;;;;;15.45;7.78;;;;;;;-140.79;100.00;63287.88;5024883;28;20029;-64
2021/11/14 09:44:10;;;;;;;14.85;8.00;;;;;;;-140.79;100.00;63287.88;5007030;28;20116;-64
2021/11/14 09:46:38;;;;;;;14.63;7.30;;;;;;;-140.79;100.00;63287.88;5023747;28;20028;-70
2021/11/14 09:49:07;;;;;;;13.43;7.82;;;;;;;-140.79;100.00;63287.88;5023307;28;20557;-67
2021/11/14 09:51:33;;;;;;;14.15;7.75;;;;;;;-140.79;100.00;63287.88;5023586;28;20120;-66
2021/11/14 09:53:58;;;;;;;15.32;7.80;;;;;;;-140.79;100.00;63287.88;5024801;28;20037;-66
2021/11/14 09:56:24;;;;;;;14.70;7.68;;;;;;;-140.79;100.00;63287.88;5024714;28;20029;-68
2021/11/14 09:58:49;;;;;;;17.02;7.97;;;;;;;-140.79;100.00;63287.88;5024124;28;20451;-63
2021/11/14 10:01:15;;;;;;;19.67;7.97;;;;;;;-140.79;100.00;63287.88;5024487;28;20025;-63
2021/11/14 10:03:41;;;;;;;16.20;7.25;;;;;;;-140.79;100.00;63287.88;5025230;28;20064;-63
2021/11/14 10:06:06;;;;;;;19.25;8.05;;;;;;;-140.79;100.00;63287.88;5024711;28;20032;-62
2021/11/14 10:08:42;;;;;;;19.38;8.15;;;;;;;-140.79;100.00;63287.88;4981590;28;20620;-63
2021/11/14 10:11:08;;;;;;;15.68;7.65;;;;;;;-140.79;100.00;63287.88;5026814;28;20596;-65
2021/11/14 10:13:34;;;;;;;16.00;8.57;;;;;;;-140.79;100.00;63287.88;5027590;28;20109;-65
2021/11/14 10:16:05;;;;;;;15.43;8.10;;;;;;;-140.79;100.00;63287.88;5027579;28;20045;-64
2021/11/14 10:18:31;;;;;;;14.20;7.60;;;;;;;-140.79;100.00;63287.88;5028127;28;20029;-64
2021/11/14 10:20:59;;;;;;;15.98;7.47;;;;;;;-140.79;100.00;63287.88;5028134;28;20021;-64
2021/11/14 10:23:24;;;;;;;17.25;7.88;;;;;;;-140.79;100.00;63287.88;5026876;28;20039;-67
2021/11/14 10:25:50;;;;;;;19.75;7.75;;;;;;;-140.79;100.00;63287.88;5026591;28;20068;-62
2021/11/14 10:28:16;;;;;;;17.98;8.15;;;;;;;-140.79;100.00;63287.88;5027645;28;20044;-64
2021/11/14 10:30:44;;;;;;;18.00;8.23;;;;;;;-140.79;100.00;63287.88;5026840;28;20112;-63
2021/11/14 10:33:12;;;;;;;17.48;8.02;;;;;;;-140.79;100.00;63287.88;5028312;28;20029;-67
2021/11/14 10:35:38;;;;;;;20.38;8.30;;;;;;;-140.79;100.00;63287.88;5026676;28;20037;-69
2021/11/14 10:38:06;;;;;;;17.58;8.50;;;;;;;-140.79;100.00;63287.88;5027821;28;20029;-71
2021/11/14 10:40:34;;;;;;;14.98;7.53;;;;;;;-140.79;100.00;63287.88;5028026;28;20037;-63
2021/11/14 10:43:00;;;;;;;24.67;8.77;;;;;;;-140.79;100.00;63287.88;5027481;28;20450;-62
2021/11/14 10:45:26;;;;;;;17.20;7.05;;;;;;;-140.79;100.00;63287.88;5024877;28;20116;-63
2021/11/14 10:48:12;;;;;;;17.73;8.40;;;;;;;-140.79;100.00;63287.88;5041081;28;20037;-65
2021/11/14 10:50:42;;;;;;;18.10;8.68;;;;;;;-140.79;100.00;63287.88;5026046;28;20075;-69
2021/11/14 10:53:09;;;;;;;19.17;8.50;;;;;;;-140.79;100.00;63287.88;5027535;28;20052;-67